sensor_id;sensor_type;location;lat;lon;timestamp;P1;durP1;ratioP1;P2;durP2;ratioP2
52248;SDS011;38541;48.130;8.378;2023-10-13T00:01:22;5.97;;;2.42;;
52248;SDS011;38541;48.130;8.378;2023-10-13T00:03:49;3.70;;;2.47;;
52248;SDS011;38541;48.130;8.378;2023-10-13T00:06:20;4.93;;;2.53;;
52248;SDS011;38541;48.130;8.378;2023-10-13T00:08:47;3.58;;;2.20;;
52248;SDS011;38541;48.130;8.378;2023-10-13T00:11:13;3.90;;;2.80;;
52248;SDS011;38541;48.130;8.378;2023-10-13T00:13:41;4.00;;;2.40;;
52248;SDS011;38541;48.130;8.378;2023-10-13T00:16:17;3.10;;;2.50;;
52248;SDS011;38541;48.130;8.378;2023-10-13T00:18:48;3.92;;;2.65;;
52248;SDS011;38541;48.130;8.378;2023-10-13T00:21:16;5.85;;;2.75;;
52248;SDS011;38541;48.130;8.378;2023-10-13T00:23:57;3.03;;;2.55;;
52248;SDS011;38541;48.130;8.378;2023-10-13T00:26:28;4.38;;;2.70;;
52248;SDS011;38541;48.130;8.378;2023-10-13T00:28:59;3.42;;;3.00;;
52248;SDS011;38541;48.130;8.378;2023-10-13T00:31:42;4.35;;;2.55;;
52248;SDS011;38541;48.130;8.378;2023-10-13T00:34:11;4.30;;;2.70;;
52248;SDS011;38541;48.130;8.378;2023-10-13T00:36:54;6.53;;;2.90;;
52248;SDS011;38541;48.130;8.378;2023-10-13T00:39:59;3.03;;;2.58;;
52248;SDS011;38541;48.130;8.378;2023-10-13T00:42:27;3.15;;;2.15;;
52248;SDS011;38541;48.130;8.378;2023-10-13T00:45:13;4.47;;;2.83;;
52248;SDS011;38541;48.130;8.378;2023-10-13T00:47:44;3.95;;;2.40;;
52248;SDS011;38541;48.130;8.378;2023-10-13T00:50:16;2.95;;;2.50;;
52248;SDS011;38541;48.130;8.378;2023-10-13T00:52:44;5.45;;;2.85;;
52248;SDS011;38541;48.130;8.378;2023-10-13T00:55:17;3.65;;;3.33;;
52248;SDS011;38541;48.130;8.378;2023-10-13T00:57:51;2.38;;;2.17;;
52248;SDS011;38541;48.130;8.378;2023-10-13T01:00:21;3.90;;;2.47;;
52248;SDS011;38541;48.130;8.378;2023-10-13T01:02:54;2.60;;;2.40;;
52248;SDS011;38541;48.130;8.378;2023-10-13T01:05:23;3.88;;;2.58;;
52248;SDS011;38541;48.130;8.378;2023-10-13T01:07:51;3.15;;;2.55;;
52248;SDS011;38541;48.130;8.378;2023-10-13T01:10:21;2.88;;;2.53;;
52248;SDS011;38541;48.130;8.378;2023-10-13T01:12:54;6.45;;;2.83;;
52248;SDS011;38541;48.130;8.378;2023-10-13T01:15:21;3.83;;;3.00;;
52248;SDS011;38541;48.130;8.378;2023-10-13T01:17:48;4.13;;;2.78;;
52248;SDS011;38541;48.130;8.378;2023-10-13T01:20:15;5.35;;;2.53;;
52248;SDS011;38541;48.130;8.378;2023-10-13T01:22:51;3.92;;;2.80;;
52248;SDS011;38541;48.130;8.378;2023-10-13T01:25:25;4.10;;;3.08;;
52248;SDS011;38541;48.130;8.378;2023-10-13T01:27:55;3.25;;;2.55;;
52248;SDS011;38541;48.130;8.378;2023-10-13T01:30:23;4.43;;;3.08;;
52248;SDS011;38541;48.130;8.378;2023-10-13T01:32:51;4.03;;;3.10;;
52248;SDS011;38541;48.130;8.378;2023-10-13T01:35:20;4.90;;;2.55;;
52248;SDS011;38541;48.130;8.378;2023-10-13T01:37:51;2.63;;;2.35;;
52248;SDS011;38541;48.130;8.378;2023-10-13T01:40:18;2.92;;;2.72;;
52248;SDS011;38541;48.130;8.378;2023-10-13T01:42:55;2.97;;;2.50;;
52248;SDS011;38541;48.130;8.378;2023-10-13T01:45:22;4.20;;;2.65;;
52248;SDS011;38541;48.130;8.378;2023-10-13T01:47:55;8.77;;;4.40;;
52248;SDS011;38541;48.130;8.378;2023-10-13T01:50:22;35.38;;;16.00;;
52248;SDS011;38541;48.130;8.378;2023-10-13T01:52:56;25.55;;;11.05;;
52248;SDS011;38541;48.130;8.378;2023-10-13T01:55:41;14.02;;;7.82;;
52248;SDS011;38541;48.130;8.378;2023-10-13T01:58:11;10.23;;;4.78;;
52248;SDS011;38541;48.130;8.378;2023-10-13T02:00:42;7.22;;;4.65;;
52248;SDS011;38541;48.130;8.378;2023-10-13T02:03:11;5.38;;;3.50;;
52248;SDS011;38541;48.130;8.378;2023-10-13T02:05:45;5.25;;;3.55;;
52248;SDS011;38541;48.130;8.378;2023-10-13T02:08:16;6.88;;;4.68;;
52248;SDS011;38541;48.130;8.378;2023-10-13T02:10:49;12.07;;;6.32;;
52248;SDS011;38541;48.130;8.378;2023-10-13T02:13:23;10.80;;;4.20;;
52248;SDS011;38541;48.130;8.378;2023-10-13T02:15:54;7.38;;;4.88;;
52248;SDS011;38541;48.130;8.378;2023-10-13T02:18:23;6.95;;;3.80;;
52248;SDS011;38541;48.130;8.378;2023-10-13T02:20:53;7.65;;;4.15;;
52248;SDS011;38541;48.130;8.378;2023-10-13T02:23:22;11.48;;;5.15;;
52248;SDS011;38541;48.130;8.378;2023-10-13T02:25:50;5.40;;;3.75;;
52248;SDS011;38541;48.130;8.378;2023-10-13T02:28:27;6.82;;;4.85;;
52248;SDS011;38541;48.130;8.378;2023-10-13T02:30:57;5.43;;;3.95;;
52248;SDS011;38541;48.130;8.378;2023-10-13T02:33:24;7.22;;;4.47;;
52248;SDS011;38541;48.130;8.378;2023-10-13T02:36:00;5.80;;;4.15;;
52248;SDS011;38541;48.130;8.378;2023-10-13T02:38:31;7.57;;;4.35;;
52248;SDS011;38541;48.130;8.378;2023-10-13T02:41:15;5.80;;;4.03;;
52248;SDS011;38541;48.130;8.378;2023-10-13T02:43:53;7.22;;;3.83;;
52248;SDS011;38541;48.130;8.378;2023-10-13T02:46:22;4.20;;;3.50;;
52248;SDS011;38541;48.130;8.378;2023-10-13T02:48:49;7.03;;;4.10;;
52248;SDS011;38541;48.130;8.378;2023-10-13T02:51:19;4.75;;;3.40;;
52248;SDS011;38541;48.130;8.378;2023-10-13T02:53:51;5.55;;;3.60;;
52248;SDS011;38541;48.130;8.378;2023-10-13T02:56:19;6.03;;;3.25;;
52248;SDS011;38541;48.130;8.378;2023-10-13T02:58:49;5.07;;;3.65;;
52248;SDS011;38541;48.130;8.378;2023-10-13T03:01:23;3.55;;;3.10;;
52248;SDS011;38541;48.130;8.378;2023-10-13T03:03:56;3.78;;;3.00;;
52248;SDS011;38541;48.130;8.378;2023-10-13T03:06:25;5.72;;;3.20;;
52248;SDS011;38541;48.130;8.378;2023-10-13T03:09:03;4.45;;;3.22;;
52248;SDS011;38541;48.130;8.378;2023-10-13T03:11:41;4.53;;;3.15;;
52248;SDS011;38541;48.130;8.378;2023-10-13T03:14:09;3.42;;;2.75;;
52248;SDS011;38541;48.130;8.378;2023-10-13T03:16:51;4.00;;;2.92;;
52248;SDS011;38541;48.130;8.378;2023-10-13T03:19:22;4.03;;;3.17;;
52248;SDS011;38541;48.130;8.378;2023-10-13T03:21:49;5.45;;;3.47;;
52248;SDS011;38541;48.130;8.378;2023-10-13T03:24:22;8.93;;;3.78;;
52248;SDS011;38541;48.130;8.378;2023-10-13T03:27:01;4.82;;;3.55;;
52248;SDS011;38541;48.130;8.378;2023-10-13T03:29:38;5.88;;;3.00;;
52248;SDS011;38541;48.130;8.378;2023-10-13T03:32:09;4.10;;;2.90;;
52248;SDS011;38541;48.130;8.378;2023-10-13T03:34:43;5.28;;;3.30;;
52248;SDS011;38541;48.130;8.378;2023-10-13T03:37:36;4.88;;;3.75;;
52248;SDS011;38541;48.130;8.378;2023-10-13T03:40:09;5.45;;;4.03;;
52248;SDS011;38541;48.130;8.378;2023-10-13T03:42:57;5.95;;;3.10;;
52248;SDS011;38541;48.130;8.378;2023-10-13T03:45:32;3.67;;;3.38;;
52248;SDS011;38541;48.130;8.378;2023-10-13T03:48:07;3.22;;;2.75;;
52248;SDS011;38541;48.130;8.378;2023-10-13T03:51:01;5.28;;;3.40;;
52248;SDS011;38541;48.130;8.378;2023-10-13T03:53:37;4.43;;;3.58;;
52248;SDS011;38541;48.130;8.378;2023-10-13T03:56:21;7.00;;;4.55;;
52248;SDS011;38541;48.130;8.378;2023-10-13T03:58:59;4.15;;;3.20;;
52248;SDS011;38541;48.130;8.378;2023-10-13T04:01:36;5.82;;;3.95;;
52248;SDS011;38541;48.130;8.378;2023-10-13T04:04:16;5.95;;;3.38;;
52248;SDS011;38541;48.130;8.378;2023-10-13T04:07:14;4.45;;;3.13;;
52248;SDS011;38541;48.130;8.378;2023-10-13T04:10:01;4.20;;;3.50;;
52248;SDS011;38541;48.130;8.378;2023-10-13T04:12:49;5.60;;;3.38;;
52248;SDS011;38541;48.130;8.378;2023-10-13T04:15:34;5.50;;;3.55;;
52248;SDS011;38541;48.130;8.378;2023-10-13T04:18:23;4.03;;;3.63;;
52248;SDS011;38541;48.130;8.378;2023-10-13T04:21:08;4.50;;;3.30;;
52248;SDS011;38541;48.130;8.378;2023-10-13T04:23:44;3.78;;;3.15;;
52248;SDS011;38541;48.130;8.378;2023-10-13T04:26:30;6.28;;;4.25;;
52248;SDS011;38541;48.130;8.378;2023-10-13T04:29:03;4.22;;;3.17;;
52248;SDS011;38541;48.130;8.378;2023-10-13T04:31:36;4.07;;;3.47;;
52248;SDS011;38541;48.130;8.378;2023-10-13T04:34:12;4.72;;;3.47;;
52248;SDS011;38541;48.130;8.378;2023-10-13T04:36:46;5.90;;;4.43;;
52248;SDS011;38541;48.130;8.378;2023-10-13T04:39:12;4.13;;;3.13;;
52248;SDS011;38541;48.130;8.378;2023-10-13T04:41:55;4.68;;;3.42;;
52248;SDS011;38541;48.130;8.378;2023-10-13T04:44:21;4.47;;;3.10;;
52248;SDS011;38541;48.130;8.378;2023-10-13T04:47:07;5.32;;;3.58;;
52248;SDS011;38541;48.130;8.378;2023-10-13T04:49:44;4.25;;;3.20;;
52248;SDS011;38541;48.130;8.378;2023-10-13T04:52:13;3.92;;;3.35;;
52248;SDS011;38541;48.130;8.378;2023-10-13T04:54:53;5.45;;;3.55;;
52248;SDS011;38541;48.130;8.378;2023-10-13T04:57:22;3.70;;;3.30;;
52248;SDS011;38541;48.130;8.378;2023-10-13T05:00:09;3.95;;;3.45;;
52248;SDS011;38541;48.130;8.378;2023-10-13T05:02:37;4.78;;;3.58;;
52248;SDS011;38541;48.130;8.378;2023-10-13T05:05:08;5.63;;;3.67;;
52248;SDS011;38541;48.130;8.378;2023-10-13T05:07:45;5.10;;;3.53;;
52248;SDS011;38541;48.130;8.378;2023-10-13T05:10:31;4.63;;;3.58;;
52248;SDS011;38541;48.130;8.378;2023-10-13T05:13:16;6.38;;;4.30;;
52248;SDS011;38541;48.130;8.378;2023-10-13T05:16:01;4.53;;;3.65;;
52248;SDS011;38541;48.130;8.378;2023-10-13T05:18:47;4.70;;;3.60;;
52248;SDS011;38541;48.130;8.378;2023-10-13T05:21:31;4.35;;;3.38;;
52248;SDS011;38541;48.130;8.378;2023-10-13T05:24:16;6.00;;;3.83;;
52248;SDS011;38541;48.130;8.378;2023-10-13T05:27:01;5.15;;;3.50;;
52248;SDS011;38541;48.130;8.378;2023-10-13T05:29:47;4.63;;;3.90;;
52248;SDS011;38541;48.130;8.378;2023-10-13T05:32:33;5.30;;;4.03;;
52248;SDS011;38541;48.130;8.378;2023-10-13T05:35:21;8.43;;;3.70;;
52248;SDS011;38541;48.130;8.378;2023-10-13T05:38:06;7.72;;;4.05;;
52248;SDS011;38541;48.130;8.378;2023-10-13T05:40:59;8.90;;;3.63;;
52248;SDS011;38541;48.130;8.378;2023-10-13T05:43:49;3.72;;;3.33;;
52248;SDS011;38541;48.130;8.378;2023-10-13T05:46:34;6.45;;;3.67;;
52248;SDS011;38541;48.130;8.378;2023-10-13T05:49:05;4.25;;;3.83;;
52248;SDS011;38541;48.130;8.378;2023-10-13T05:51:32;6.40;;;3.88;;
52248;SDS011;38541;48.130;8.378;2023-10-13T05:54:02;5.65;;;4.20;;
52248;SDS011;38541;48.130;8.378;2023-10-13T05:56:49;5.68;;;3.67;;
52248;SDS011;38541;48.130;8.378;2023-10-13T05:59:36;5.85;;;4.22;;
52248;SDS011;38541;48.130;8.378;2023-10-13T06:05:08;4.20;;;3.45;;
52248;SDS011;38541;48.130;8.378;2023-10-13T06:07:55;5.90;;;3.92;;
52248;SDS011;38541;48.130;8.378;2023-10-13T06:10:42;3.75;;;3.25;;
52248;SDS011;38541;48.130;8.378;2023-10-13T06:13:27;3.78;;;3.15;;
52248;SDS011;38541;48.130;8.378;2023-10-13T06:16:14;4.82;;;3.42;;
52248;SDS011;38541;48.130;8.378;2023-10-13T06:19:01;6.28;;;4.22;;
52248;SDS011;38541;48.130;8.378;2023-10-13T06:21:46;4.60;;;3.30;;
52248;SDS011;38541;48.130;8.378;2023-10-13T06:24:32;7.88;;;3.67;;
52248;SDS011;38541;48.130;8.378;2023-10-13T06:27:17;7.70;;;3.70;;
52248;SDS011;38541;48.130;8.378;2023-10-13T06:30:02;5.55;;;3.50;;
52248;SDS011;38541;48.130;8.378;2023-10-13T06:32:31;6.90;;;3.45;;
52248;SDS011;38541;48.130;8.378;2023-10-13T06:34:58;5.68;;;4.13;;
52248;SDS011;38541;48.130;8.378;2023-10-13T06:37:31;5.10;;;3.90;;
52248;SDS011;38541;48.130;8.378;2023-10-13T06:40:00;6.22;;;3.47;;
52248;SDS011;38541;48.130;8.378;2023-10-13T06:42:48;4.22;;;3.83;;
52248;SDS011;38541;48.130;8.378;2023-10-13T06:45:15;4.25;;;3.85;;
52248;SDS011;38541;48.130;8.378;2023-10-13T06:47:43;3.97;;;3.58;;
52248;SDS011;38541;48.130;8.378;2023-10-13T06:50:11;6.63;;;4.15;;
52248;SDS011;38541;48.130;8.378;2023-10-13T06:52:45;6.90;;;3.97;;
52248;SDS011;38541;48.130;8.378;2023-10-13T06:55:16;4.40;;;4.00;;
52248;SDS011;38541;48.130;8.378;2023-10-13T06:57:54;5.63;;;3.80;;
52248;SDS011;38541;48.130;8.378;2023-10-13T07:00:28;7.47;;;5.30;;
52248;SDS011;38541;48.130;8.378;2023-10-13T07:02:56;7.75;;;4.35;;
52248;SDS011;38541;48.130;8.378;2023-10-13T07:05:34;7.20;;;4.00;;
52248;SDS011;38541;48.130;8.378;2023-10-13T07:08:05;4.03;;;3.28;;
52248;SDS011;38541;48.130;8.378;2023-10-13T07:10:33;5.88;;;4.00;;
52248;SDS011;38541;48.130;8.378;2023-10-13T07:13:11;10.18;;;4.00;;
52248;SDS011;38541;48.130;8.378;2023-10-13T07:15:40;8.25;;;4.20;;
52248;SDS011;38541;48.130;8.378;2023-10-13T07:18:12;5.63;;;3.97;;
52248;SDS011;38541;48.130;8.378;2023-10-13T07:20:40;6.03;;;3.67;;
52248;SDS011;38541;48.130;8.378;2023-10-13T07:23:10;5.07;;;4.32;;
52248;SDS011;38541;48.130;8.378;2023-10-13T07:25:53;7.45;;;4.50;;
52248;SDS011;38541;48.130;8.378;2023-10-13T07:28:21;4.53;;;3.60;;
52248;SDS011;38541;48.130;8.378;2023-10-13T07:30:48;4.25;;;3.65;;
52248;SDS011;38541;48.130;8.378;2023-10-13T07:33:20;6.88;;;3.65;;
52248;SDS011;38541;48.130;8.378;2023-10-13T07:35:48;6.68;;;3.42;;
52248;SDS011;38541;48.130;8.378;2023-10-13T07:38:27;8.02;;;4.63;;
52248;SDS011;38541;48.130;8.378;2023-10-13T07:40:58;4.18;;;3.40;;
52248;SDS011;38541;48.130;8.378;2023-10-13T07:43:33;4.50;;;3.90;;
52248;SDS011;38541;48.130;8.378;2023-10-13T07:46:00;4.68;;;3.20;;
52248;SDS011;38541;48.130;8.378;2023-10-13T07:48:33;7.40;;;3.20;;
52248;SDS011;38541;48.130;8.378;2023-10-13T07:51:03;3.45;;;2.97;;
52248;SDS011;38541;48.130;8.378;2023-10-13T07:53:36;3.03;;;2.75;;
52248;SDS011;38541;48.130;8.378;2023-10-13T07:56:09;3.65;;;2.78;;
52248;SDS011;38541;48.130;8.378;2023-10-13T07:58:38;6.22;;;2.90;;
52248;SDS011;38541;48.130;8.378;2023-10-13T08:01:30;6.57;;;2.90;;
52248;SDS011;38541;48.130;8.378;2023-10-13T08:03:57;4.88;;;3.00;;
52248;SDS011;38541;48.130;8.378;2023-10-13T08:06:53;4.22;;;2.80;;
52248;SDS011;38541;48.130;8.378;2023-10-13T08:09:29;2.67;;;2.30;;
52248;SDS011;38541;48.130;8.378;2023-10-13T08:12:07;3.72;;;2.90;;
52248;SDS011;38541;48.130;8.378;2023-10-13T08:14:38;5.13;;;2.60;;
52248;SDS011;38541;48.130;8.378;2023-10-13T08:17:07;5.50;;;3.15;;
52248;SDS011;38541;48.130;8.378;2023-10-13T08:19:36;4.45;;;3.10;;
52248;SDS011;38541;48.130;8.378;2023-10-13T08:22:08;3.33;;;2.78;;
52248;SDS011;38541;48.130;8.378;2023-10-13T08:24:44;4.85;;;2.80;;
52248;SDS011;38541;48.130;8.378;2023-10-13T08:27:12;4.30;;;2.60;;
52248;SDS011;38541;48.130;8.378;2023-10-13T08:29:58;3.90;;;2.67;;
52248;SDS011;38541;48.130;8.378;2023-10-13T08:32:25;2.92;;;2.35;;
52248;SDS011;38541;48.130;8.378;2023-10-13T08:34:59;4.10;;;2.65;;
52248;SDS011;38541;48.130;8.378;2023-10-13T08:37:27;5.20;;;2.40;;
52248;SDS011;38541;48.130;8.378;2023-10-13T08:39:56;4.65;;;2.72;;
52248;SDS011;38541;48.130;8.378;2023-10-13T08:45:36;3.78;;;2.85;;
52248;SDS011;38541;48.130;8.378;2023-10-13T08:48:03;3.78;;;2.55;;
52248;SDS011;38541;48.130;8.378;2023-10-13T08:50:39;5.13;;;2.60;;
52248;SDS011;38541;48.130;8.378;2023-10-13T08:53:16;3.35;;;2.35;;
52248;SDS011;38541;48.130;8.378;2023-10-13T08:55:59;2.88;;;2.45;;
52248;SDS011;38541;48.130;8.378;2023-10-13T08:59:00;3.58;;;2.67;;
52248;SDS011;38541;48.130;8.378;2023-10-13T09:01:31;6.03;;;2.50;;
52248;SDS011;38541;48.130;8.378;2023-10-13T09:04:13;3.25;;;2.22;;
52248;SDS011;38541;48.130;8.378;2023-10-13T09:06:44;5.20;;;2.75;;
52248;SDS011;38541;48.130;8.378;2023-10-13T09:12:01;4.63;;;2.30;;
52248;SDS011;38541;48.130;8.378;2023-10-13T09:14:38;5.43;;;2.42;;
52248;SDS011;38541;48.130;8.378;2023-10-13T09:17:11;5.53;;;3.03;;
52248;SDS011;38541;48.130;8.378;2023-10-13T09:19:59;3.15;;;2.78;;
52248;SDS011;38541;48.130;8.378;2023-10-13T09:22:46;3.30;;;2.00;;
52248;SDS011;38541;48.130;8.378;2023-10-13T09:25:31;3.20;;;2.30;;
52248;SDS011;38541;48.130;8.378;2023-10-13T09:28:11;5.32;;;2.30;;
52248;SDS011;38541;48.130;8.378;2023-10-13T09:33:20;5.82;;;2.08;;
52248;SDS011;38541;48.130;8.378;2023-10-13T09:35:54;3.78;;;2.95;;
52248;SDS011;38541;48.130;8.378;2023-10-13T09:38:27;4.68;;;2.47;;
52248;SDS011;38541;48.130;8.378;2023-10-13T09:40:54;5.15;;;2.63;;
52248;SDS011;38541;48.130;8.378;2023-10-13T09:43:28;7.95;;;3.20;;
52248;SDS011;38541;48.130;8.378;2023-10-13T09:46:00;3.30;;;2.13;;
52248;SDS011;38541;48.130;8.378;2023-10-13T09:48:45;5.68;;;2.58;;
52248;SDS011;38541;48.130;8.378;2023-10-13T09:51:13;7.70;;;2.30;;
52248;SDS011;38541;48.130;8.378;2023-10-13T09:53:51;9.45;;;2.15;;
52248;SDS011;38541;48.130;8.378;2023-10-13T09:56:48;3.13;;;2.10;;
52248;SDS011;38541;48.130;8.378;2023-10-13T09:59:29;4.47;;;1.88;;
52248;SDS011;38541;48.130;8.378;2023-10-13T10:02:01;3.05;;;2.20;;
52248;SDS011;38541;48.130;8.378;2023-10-13T10:04:38;2.95;;;2.30;;
52248;SDS011;38541;48.130;8.378;2023-10-13T10:07:53;2.95;;;1.80;;
52248;SDS011;38541;48.130;8.378;2023-10-13T10:10:21;3.83;;;1.90;;
52248;SDS011;38541;48.130;8.378;2023-10-13T10:13:10;3.83;;;1.90;;
52248;SDS011;38541;48.130;8.378;2023-10-13T10:15:46;3.45;;;1.90;;
52248;SDS011;38541;48.130;8.378;2023-10-13T10:18:18;4.10;;;2.85;;
52248;SDS011;38541;48.130;8.378;2023-10-13T10:20:48;3.38;;;2.63;;
52248;SDS011;38541;48.130;8.378;2023-10-13T10:23:28;7.53;;;2.85;;
52248;SDS011;38541;48.130;8.378;2023-10-13T10:25:55;3.97;;;2.22;;
52248;SDS011;38541;48.130;8.378;2023-10-13T10:28:35;7.13;;;2.70;;
52248;SDS011;38541;48.130;8.378;2023-10-13T10:31:06;4.65;;;2.50;;
52248;SDS011;38541;48.130;8.378;2023-10-13T10:33:35;5.20;;;2.30;;
52248;SDS011;38541;48.130;8.378;2023-10-13T10:36:03;4.55;;;2.50;;
52248;SDS011;38541;48.130;8.378;2023-10-13T10:38:31;3.20;;;1.73;;
52248;SDS011;38541;48.130;8.378;2023-10-13T10:41:05;3.47;;;2.20;;
52248;SDS011;38541;48.130;8.378;2023-10-13T10:43:38;2.30;;;1.75;;
52248;SDS011;38541;48.130;8.378;2023-10-13T10:46:11;5.07;;;2.10;;
52248;SDS011;38541;48.130;8.378;2023-10-13T10:48:43;6.70;;;2.55;;
52248;SDS011;38541;48.130;8.378;2023-10-13T10:51:11;6.20;;;2.40;;
52248;SDS011;38541;48.130;8.378;2023-10-13T10:53:50;2.97;;;2.05;;
52248;SDS011;38541;48.130;8.378;2023-10-13T10:56:18;3.03;;;1.95;;
52248;SDS011;38541;48.130;8.378;2023-10-13T10:59:00;2.38;;;2.08;;
52248;SDS011;38541;48.130;8.378;2023-10-13T11:04:01;6.40;;;2.10;;
52248;SDS011;38541;48.130;8.378;2023-10-13T11:06:52;2.92;;;1.80;;
52248;SDS011;38541;48.130;8.378;2023-10-13T11:09:31;4.03;;;2.22;;
52248;SDS011;38541;48.130;8.378;2023-10-13T11:14:41;5.32;;;2.70;;
52248;SDS011;38541;48.130;8.378;2023-10-13T11:17:18;4.13;;;2.30;;
52248;SDS011;38541;48.130;8.378;2023-10-13T11:19:51;3.33;;;2.38;;
52248;SDS011;38541;48.130;8.378;2023-10-13T11:22:20;5.35;;;2.50;;
52248;SDS011;38541;48.130;8.378;2023-10-13T11:25:03;3.60;;;2.40;;
52248;SDS011;38541;48.130;8.378;2023-10-13T11:27:41;3.72;;;1.98;;
52248;SDS011;38541;48.130;8.378;2023-10-13T11:30:11;3.03;;;1.73;;
52248;SDS011;38541;48.130;8.378;2023-10-13T11:32:41;2.80;;;2.08;;
52248;SDS011;38541;48.130;8.378;2023-10-13T11:35:11;2.50;;;2.22;;
52248;SDS011;38541;48.130;8.378;2023-10-13T11:37:47;2.40;;;2.20;;
52248;SDS011;38541;48.130;8.378;2023-10-13T11:40:23;2.20;;;1.95;;
52248;SDS011;38541;48.130;8.378;2023-10-13T11:43:25;4.82;;;2.47;;
52248;SDS011;38541;48.130;8.378;2023-10-13T11:45:52;5.68;;;2.30;;
52248;SDS011;38541;48.130;8.378;2023-10-13T11:48:26;3.67;;;2.03;;
52248;SDS011;38541;48.130;8.378;2023-10-13T11:51:06;4.07;;;3.13;;
52248;SDS011;38541;48.130;8.378;2023-10-13T11:53:34;4.07;;;2.42;;
52248;SDS011;38541;48.130;8.378;2023-10-13T11:56:01;4.65;;;3.08;;
52248;SDS011;38541;48.130;8.378;2023-10-13T11:58:38;4.88;;;1.90;;
52248;SDS011;38541;48.130;8.378;2023-10-13T12:01:06;3.50;;;1.98;;
52248;SDS011;38541;48.130;8.378;2023-10-13T12:03:39;4.35;;;1.88;;
52248;SDS011;38541;48.130;8.378;2023-10-13T12:06:28;3.25;;;2.08;;
52248;SDS011;38541;48.130;8.378;2023-10-13T12:09:03;2.70;;;2.10;;
52248;SDS011;38541;48.130;8.378;2023-10-13T12:11:46;3.47;;;1.90;;
52248;SDS011;38541;48.130;8.378;2023-10-13T12:14:17;6.35;;;2.00;;
52248;SDS011;38541;48.130;8.378;2023-10-13T12:17:05;5.40;;;2.35;;
52248;SDS011;38541;48.130;8.378;2023-10-13T12:19:37;3.53;;;2.00;;
52248;SDS011;38541;48.130;8.378;2023-10-13T12:22:05;2.20;;;1.73;;
52248;SDS011;38541;48.130;8.378;2023-10-13T12:24:35;6.22;;;1.98;;
52248;SDS011;38541;48.130;8.378;2023-10-13T12:27:02;2.20;;;1.60;;
52248;SDS011;38541;48.130;8.378;2023-10-13T12:29:29;2.15;;;1.50;;
52248;SDS011;38541;48.130;8.378;2023-10-13T12:31:55;4.03;;;1.70;;
52248;SDS011;38541;48.130;8.378;2023-10-13T12:34:35;2.30;;;1.83;;
52248;SDS011;38541;48.130;8.378;2023-10-13T12:37:21;2.40;;;1.88;;
52248;SDS011;38541;48.130;8.378;2023-10-13T12:40:06;2.58;;;1.77;;
52248;SDS011;38541;48.130;8.378;2023-10-13T12:42:52;4.90;;;2.92;;
52248;SDS011;38541;48.130;8.378;2023-10-13T12:45:41;2.47;;;2.28;;
52248;SDS011;38541;48.130;8.378;2023-10-13T12:48:26;2.42;;;2.05;;
52248;SDS011;38541;48.130;8.378;2023-10-13T12:51:12;4.88;;;1.85;;
52248;SDS011;38541;48.130;8.378;2023-10-13T12:53:54;2.45;;;1.70;;
52248;SDS011;38541;48.130;8.378;2023-10-13T12:56:30;2.42;;;1.75;;
52248;SDS011;38541;48.130;8.378;2023-10-13T12:58:57;2.80;;;1.67;;
52248;SDS011;38541;48.130;8.378;2023-10-13T13:01:24;3.63;;;2.00;;
52248;SDS011;38541;48.130;8.378;2023-10-13T13:03:52;2.22;;;1.83;;
52248;SDS011;38541;48.130;8.378;2023-10-13T13:06:23;4.13;;;1.60;;
52248;SDS011;38541;48.130;8.378;2023-10-13T13:08:57;2.83;;;1.83;;
52248;SDS011;38541;48.130;8.378;2023-10-13T13:11:25;2.22;;;1.23;;
52248;SDS011;38541;48.130;8.378;2023-10-13T13:13:52;1.90;;;1.60;;
52248;SDS011;38541;48.130;8.378;2023-10-13T13:16:19;2.97;;;1.90;;
52248;SDS011;38541;48.130;8.378;2023-10-13T13:18:57;1.98;;;1.50;;
52248;SDS011;38541;48.130;8.378;2023-10-13T13:21:23;2.33;;;1.40;;
52248;SDS011;38541;48.130;8.378;2023-10-13T13:23:53;1.73;;;1.55;;
52248;SDS011;38541;48.130;8.378;2023-10-13T13:26:22;3.38;;;1.92;;
52248;SDS011;38541;48.130;8.378;2023-10-13T13:28:49;3.30;;;1.98;;
52248;SDS011;38541;48.130;8.378;2023-10-13T13:31:19;4.65;;;2.20;;
52248;SDS011;38541;48.130;8.378;2023-10-13T13:33:52;3.20;;;1.60;;
52248;SDS011;38541;48.130;8.378;2023-10-13T13:36:19;7.25;;;1.67;;
52248;SDS011;38541;48.130;8.378;2023-10-13T13:38:47;3.38;;;1.90;;
52248;SDS011;38541;48.130;8.378;2023-10-13T13:41:17;3.47;;;1.75;;
52248;SDS011;38541;48.130;8.378;2023-10-13T13:43:44;3.65;;;1.85;;
52248;SDS011;38541;48.130;8.378;2023-10-13T13:46:27;2.33;;;1.65;;
52248;SDS011;38541;48.130;8.378;2023-10-13T13:48:59;2.53;;;1.58;;
52248;SDS011;38541;48.130;8.378;2023-10-13T13:51:27;2.45;;;1.50;;
52248;SDS011;38541;48.130;8.378;2023-10-13T13:53:54;2.80;;;1.73;;
52248;SDS011;38541;48.130;8.378;2023-10-13T13:56:22;1.95;;;1.70;;
52248;SDS011;38541;48.130;8.378;2023-10-13T13:58:52;2.10;;;1.55;;
52248;SDS011;38541;48.130;8.378;2023-10-13T14:01:19;3.60;;;2.05;;
52248;SDS011;38541;48.130;8.378;2023-10-13T14:03:52;3.25;;;2.45;;
52248;SDS011;38541;48.130;8.378;2023-10-13T14:06:24;1.55;;;1.35;;
52248;SDS011;38541;48.130;8.378;2023-10-13T14:08:51;7.82;;;2.00;;
52248;SDS011;38541;48.130;8.378;2023-10-13T14:11:24;3.10;;;1.70;;
52248;SDS011;38541;48.130;8.378;2023-10-13T14:14:14;3.65;;;2.00;;
52248;SDS011;38541;48.130;8.378;2023-10-13T14:16:51;5.78;;;1.65;;
52248;SDS011;38541;48.130;8.378;2023-10-13T14:19:18;2.00;;;1.60;;
52248;SDS011;38541;48.130;8.378;2023-10-13T14:21:53;3.22;;;1.48;;
52248;SDS011;38541;48.130;8.378;2023-10-13T14:24:20;2.80;;;1.95;;
52248;SDS011;38541;48.130;8.378;2023-10-13T14:26:55;4.55;;;2.03;;
52248;SDS011;38541;48.130;8.378;2023-10-13T14:29:22;2.42;;;1.60;;
52248;SDS011;38541;48.130;8.378;2023-10-13T14:31:53;2.20;;;1.63;;
52248;SDS011;38541;48.130;8.378;2023-10-13T14:34:19;3.15;;;1.77;;
52248;SDS011;38541;48.130;8.378;2023-10-13T14:36:48;2.92;;;2.00;;
52248;SDS011;38541;48.130;8.378;2023-10-13T14:39:15;2.78;;;1.70;;
52248;SDS011;38541;48.130;8.378;2023-10-13T14:41:41;2.22;;;1.80;;
52248;SDS011;38541;48.130;8.378;2023-10-13T14:44:08;2.78;;;2.33;;
52248;SDS011;38541;48.130;8.378;2023-10-13T14:46:35;2.05;;;1.63;;
52248;SDS011;38541;48.130;8.378;2023-10-13T14:49:02;3.00;;;1.50;;
52248;SDS011;38541;48.130;8.378;2023-10-13T14:51:29;2.03;;;1.83;;
52248;SDS011;38541;48.130;8.378;2023-10-13T14:53:55;1.88;;;1.70;;
52248;SDS011;38541;48.130;8.378;2023-10-13T14:56:22;1.83;;;1.73;;
52248;SDS011;38541;48.130;8.378;2023-10-13T14:58:52;2.42;;;1.80;;
52248;SDS011;38541;48.130;8.378;2023-10-13T15:01:21;1.80;;;1.60;;
52248;SDS011;38541;48.130;8.378;2023-10-13T15:03:49;2.70;;;1.48;;
52248;SDS011;38541;48.130;8.378;2023-10-13T15:06:22;1.50;;;1.40;;
52248;SDS011;38541;48.130;8.378;2023-10-13T15:08:57;3.70;;;1.63;;
52248;SDS011;38541;48.130;8.378;2023-10-13T15:11:24;3.58;;;1.67;;
52248;SDS011;38541;48.130;8.378;2023-10-13T15:14:15;2.67;;;1.27;;
52248;SDS011;38541;48.130;8.378;2023-10-13T15:16:41;2.20;;;1.67;;
52248;SDS011;38541;48.130;8.378;2023-10-13T15:19:10;1.67;;;1.58;;
52248;SDS011;38541;48.130;8.378;2023-10-13T15:21:36;3.88;;;1.80;;
52248;SDS011;38541;48.130;8.378;2023-10-13T15:24:03;2.40;;;1.75;;
52248;SDS011;38541;48.130;8.378;2023-10-13T15:26:51;3.35;;;1.80;;
52248;SDS011;38541;48.130;8.378;2023-10-13T15:29:23;1.67;;;1.55;;
52248;SDS011;38541;48.130;8.378;2023-10-13T15:31:53;2.63;;;1.77;;
52248;SDS011;38541;48.130;8.378;2023-10-13T15:34:26;1.83;;;1.73;;
52248;SDS011;38541;48.130;8.378;2023-10-13T15:36:54;2.50;;;1.75;;
52248;SDS011;38541;48.130;8.378;2023-10-13T15:39:22;1.80;;;1.60;;
52248;SDS011;38541;48.130;8.378;2023-10-13T15:41:57;2.35;;;1.75;;
52248;SDS011;38541;48.130;8.378;2023-10-13T15:44:28;3.90;;;1.90;;
52248;SDS011;38541;48.130;8.378;2023-10-13T15:46:58;2.70;;;2.05;;
52248;SDS011;38541;48.130;8.378;2023-10-13T15:49:31;4.53;;;2.20;;